Terminal Aerodrome Forecast
Issued by NWS Wilmington, OH

Current Version | Previous Version | Graphics & Text | Print | Product List | Glossary On
Versions: 1 2 3 4 5 6 7 8 9 10 11 12 13 14 15 16 17 18 19 20 21 22 23 24 25 26 27 28 29 30 31
000
FTUS41 KILN 290500
TAFDAY
TAF
KDAY 290525Z 2906/3006 18008KT P6SM BKN100
     FM290800 16010KT P6SM VCSH SCT040 BKN080
     FM291100 16012G20KT 5SM -SHRA OVC040
      TEMPO 2911/2914 3SM -SHRA BKN025
     FM291500 17012G22KT P6SM VCSH BKN035
     FM291700 18012G22KT P6SM VCTS BKN040CB
     FM292300 21010KT P6SM VCSH BKN035
     FM300200 23008KT P6SM BKN035=

USA.gov is the U.S. government's official web portal to all federal, state and local government web resources and services.